createdAt,value
2018-05-10T00:00:59.273Z,22.80
2018-05-10T00:06:02.566Z,22.90
2018-05-10T00:11:06.603Z,23.10
2018-05-10T00:16:10.653Z,23.20
2018-05-10T00:21:13.950Z,23.20
2018-05-10T00:26:17.219Z,22.60
2018-05-10T00:31:20.488Z,22.50
2018-05-10T00:36:23.759Z,22.70
2018-05-10T00:41:27.071Z,22.50
2018-05-10T00:46:30.347Z,22.50
2018-05-10T00:51:33.633Z,22.50
2018-05-10T00:56:36.919Z,22.40
2018-05-10T01:01:40.207Z,22.30
2018-05-10T01:06:43.509Z,22.60
2018-05-10T01:11:46.784Z,22.60
2018-05-10T01:16:50.800Z,21.90
2018-05-10T01:21:54.084Z,21.80
2018-05-10T01:26:57.396Z,21.60
2018-05-10T01:32:00.672Z,21.70
2018-05-10T01:37:04.722Z,21.40
2018-05-10T01:42:08.007Z,21.30
2018-05-10T01:47:12.060Z,21.50
2018-05-10T01:52:15.323Z,21.40
2018-05-10T01:57:19.375Z,20.90
2018-05-10T02:02:22.631Z,20.90
2018-05-10T02:07:25.924Z,20.80
2018-05-10T02:12:29.192Z,20.70
2018-05-10T02:17:32.488Z,21.00
2018-05-10T02:22:36.532Z,20.40
2018-05-10T02:27:39.820Z,20.40
2018-05-10T02:32:43.096Z,20.30
2018-05-10T02:37:46.381Z,20.20
2018-05-10T02:42:49.659Z,20.60
2018-05-10T02:47:53.689Z,20.10
2018-05-10T02:52:56.964Z,20.00
2018-05-10T02:58:00.230Z,20.00
2018-05-10T03:03:03.509Z,20.00
2018-05-10T03:08:07.307Z,19.60
2018-05-10T03:13:10.580Z,19.30
2018-05-10T03:18:13.856Z,20.20
2018-05-10T03:23:17.896Z,20.40
2018-05-10T03:28:21.200Z,20.30
2018-05-10T03:33:24.572Z,20.20
2018-05-10T03:38:28.652Z,20.60
2018-05-10T03:43:31.927Z,20.60
2018-05-10T03:48:35.948Z,19.60
2018-05-10T03:53:39.989Z,19.30
2018-05-10T03:58:43.270Z,19.20
2018-05-10T04:03:59.343Z,19.20
2018-05-10T04:09:14.544Z,19.00
2018-05-10T04:14:17.816Z,19.60
2018-05-10T04:19:21.088Z,19.70
2018-05-10T04:24:24.359Z,19.00
2018-05-10T04:29:27.631Z,18.60
2018-05-10T04:34:30.970Z,18.70
2018-05-10T04:39:34.227Z,19.50
2018-05-10T04:44:38.255Z,19.00
2018-05-10T04:49:42.292Z,19.50
2018-05-10T04:54:46.335Z,19.30
2018-05-10T04:59:49.591Z,19.30
2018-05-10T05:04:52.859Z,19.90
2018-05-10T05:09:56.135Z,19.70
2018-05-10T05:15:00.164Z,19.90
2018-05-10T05:20:03.484Z,19.80
2018-05-10T05:25:06.761Z,20.20
2018-05-10T05:30:10.076Z,19.70
2018-05-10T05:35:13.345Z,19.40
2018-05-10T05:40:16.624Z,19.40
2018-05-10T05:45:21.584Z,19.30
2018-05-10T05:50:24.900Z,19.20
2018-05-10T05:55:28.162Z,19.00
2018-05-10T06:00:31.472Z,18.80
2018-05-10T06:05:35.513Z,19.40
2018-05-10T06:10:39.599Z,19.40
2018-05-10T06:15:42.968Z,19.40
2018-05-10T06:20:46.135Z,19.50
2018-05-10T06:25:49.411Z,20.10
2018-05-10T06:30:53.516Z,20.00
2018-05-10T06:35:56.776Z,19.90
2018-05-10T06:41:00.033Z,20.20
2018-05-10T06:46:03.295Z,19.90
2018-05-10T06:51:06.557Z,20.50
2018-05-10T06:56:09.915Z,20.90
2018-05-10T07:01:13.180Z,20.80
2018-05-10T07:06:17.415Z,20.50
2018-05-10T07:11:20.696Z,20.50
2018-05-10T07:16:23.959Z,21.00
2018-05-10T07:21:27.216Z,21.20
2018-05-10T07:26:30.459Z,21.20
2018-05-10T07:31:33.795Z,21.90
2018-05-10T07:36:37.055Z,22.40
2018-05-10T07:41:40.325Z,22.90
2018-05-10T07:46:43.595Z,21.80
2018-05-10T07:51:46.847Z,22.30
2018-05-10T07:56:50.895Z,22.60
2018-05-10T08:01:54.145Z,22.50
2018-05-10T08:06:57.540Z,23.90
2018-05-10T08:12:00.839Z,23.70
2018-05-10T08:17:04.106Z,23.40
2018-05-10T08:22:07.379Z,23.60
2018-05-10T08:27:10.644Z,24.30
2018-05-10T08:32:13.912Z,23.90
2018-05-10T08:37:17.199Z,24.60
2018-05-10T08:42:20.466Z,24.70
2018-05-10T08:47:23.716Z,24.90
2018-05-10T08:52:26.989Z,24.70
2018-05-10T08:57:30.259Z,24.00
2018-05-10T09:02:34.101Z,24.60
2018-05-10T09:07:37.499Z,24.60
2018-05-10T09:12:40.759Z,24.10
2018-05-10T09:17:44.039Z,25.90
2018-05-10T09:22:47.349Z,26.10
2018-05-10T09:27:50.615Z,26.50
2018-05-10T09:32:54.646Z,27.80
2018-05-10T09:37:57.936Z,27.70
2018-05-10T09:43:01.252Z,27.70
2018-05-10T09:48:04.495Z,28.00
2018-05-10T09:53:07.766Z,27.40
2018-05-10T09:58:11.035Z,26.70
2018-05-10T10:03:16.031Z,26.10
2018-05-10T10:08:19.276Z,26.00
2018-05-10T10:13:22.548Z,24.00
2018-05-10T10:18:25.817Z,21.40
2018-05-10T10:23:29.075Z,20.40
2018-05-10T10:28:33.096Z,20.90
2018-05-10T10:33:37.241Z,20.80
2018-05-10T10:38:41.287Z,22.90
2018-05-10T10:43:44.560Z,22.80
2018-05-10T10:48:48.624Z,22.70
2018-05-10T10:53:51.979Z,22.70
2018-05-10T10:58:55.180Z,22.70
2018-05-10T11:03:58.465Z,22.00
2018-05-10T11:09:01.783Z,22.50
2018-05-10T11:14:05.076Z,22.80
2018-05-10T11:19:08.339Z,20.60
2018-05-10T11:24:12.378Z,20.00
2018-05-10T11:29:16.432Z,20.00
2018-05-10T11:34:19.715Z,20.00
2018-05-10T11:39:22.980Z,20.70
2018-05-10T11:44:26.355Z,19.90
2018-05-10T11:49:29.524Z,19.80
2018-05-10T11:54:33.584Z,20.10
2018-05-10T11:59:36.856Z,20.00
2018-05-10T12:04:40.142Z,21.50
2018-05-10T12:09:43.426Z,22.10
2018-05-10T12:14:46.779Z,21.90
2018-05-10T12:19:50.055Z,20.90
2018-05-10T12:24:53.344Z,20.00
2018-05-10T12:29:56.634Z,19.20
2018-05-10T12:34:59.907Z,19.90
2018-05-10T12:40:03.166Z,19.10
2018-05-10T12:45:06.467Z,19.30
2018-05-10T12:50:10.623Z,20.70
2018-05-10T12:55:13.919Z,20.70
2018-05-10T13:00:17.200Z,20.80
2018-05-10T13:05:20.483Z,20.10
2018-05-10T13:10:24.549Z,20.20
2018-05-10T13:15:27.828Z,20.40
2018-05-10T13:20:31.128Z,20.30
2018-05-10T13:25:34.383Z,20.50
2018-05-10T13:30:38.526Z,20.80
2018-05-10T13:35:41.794Z,20.80
2018-05-10T13:40:45.834Z,20.80
2018-05-10T13:45:49.108Z,20.80
2018-05-10T13:50:52.387Z,21.00
2018-05-10T13:55:55.655Z,21.30
2018-05-10T14:00:58.934Z,21.90
2018-05-10T14:06:02.204Z,21.30
2018-05-10T14:11:05.530Z,21.40
2018-05-10T14:16:08.796Z,20.90
2018-05-10T14:21:12.052Z,20.80
2018-05-10T14:26:15.319Z,20.70
2018-05-10T14:31:18.622Z,21.20
2018-05-10T14:36:21.925Z,21.20
2018-05-10T14:41:25.224Z,21.30
2018-05-10T14:46:29.249Z,21.80
2018-05-10T14:51:32.497Z,22.70
2018-05-10T14:56:35.751Z,23.80
2018-05-10T15:01:39.788Z,24.90
2018-05-10T15:06:43.055Z,24.70
2018-05-10T15:11:46.321Z,24.70
2018-05-10T15:16:49.671Z,25.10
2018-05-10T15:21:52.937Z,25.50
2018-05-10T15:26:56.219Z,24.20
2018-05-10T15:32:00.244Z,25.10
2018-05-10T15:37:03.494Z,25.00
2018-05-10T15:42:06.743Z,24.70
2018-05-10T15:47:09.996Z,24.20
2018-05-10T15:52:13.246Z,24.60
2018-05-10T15:57:16.500Z,25.60
2018-05-10T16:02:20.522Z,24.90
2018-05-10T16:07:23.898Z,24.80
2018-05-10T16:12:27.143Z,25.20
2018-05-10T16:17:30.412Z,24.60
2018-05-10T16:22:33.676Z,24.40
2018-05-10T16:27:36.931Z,25.80
2018-05-10T16:32:40.191Z,25.50
2018-05-10T16:37:44.223Z,24.10
2018-05-10T16:42:47.491Z,23.60
2018-05-10T16:47:51.538Z,23.00
2018-05-10T16:52:54.791Z,23.00
2018-05-10T16:57:58.048Z,22.40
2018-05-10T17:03:02.079Z,21.70
2018-05-10T17:08:06.100Z,21.40
2018-05-10T17:13:10.125Z,21.70
2018-05-10T17:18:13.489Z,21.70
2018-05-10T17:23:16.754Z,21.60
2018-05-10T17:28:20.032Z,21.40
2018-05-10T17:33:24.681Z,21.60
2018-05-10T17:38:27.947Z,21.50
2018-05-10T17:43:31.223Z,21.70
2018-05-10T17:48:34.472Z,21.80
2018-05-10T17:53:37.740Z,22.10
2018-05-10T17:58:41.750Z,21.50
2018-05-10T18:03:45.005Z,21.50
2018-05-10T18:08:49.172Z,21.40
2018-05-10T18:13:52.443Z,21.00
2018-05-10T18:18:55.745Z,20.70
2018-05-10T18:23:59.003Z,20.40
2018-05-10T18:29:02.280Z,20.50
2018-05-10T18:34:05.521Z,20.20
2018-05-10T18:39:08.795Z,20.30
2018-05-10T18:44:12.078Z,20.20
2018-05-10T18:49:15.317Z,20.20
2018-05-10T18:54:18.601Z,20.00
2018-05-10T18:59:21.854Z,19.80
2018-05-10T19:04:25.151Z,19.50
2018-05-10T19:09:28.416Z,19.50
2018-05-10T19:14:31.773Z,19.50
2018-05-10T19:19:35.012Z,19.20
2018-05-10T19:24:39.048Z,18.80
2018-05-10T19:29:42.316Z,18.70
2018-05-10T19:34:45.571Z,18.90
2018-05-10T19:39:49.624Z,18.60
2018-05-10T19:44:52.904Z,18.50
2018-05-10T19:49:56.164Z,18.60
2018-05-10T19:54:59.419Z,18.50
2018-05-10T20:00:02.741Z,18.40
2018-05-10T20:05:06.052Z,18.30
2018-05-10T20:10:09.341Z,18.20
2018-05-10T20:15:13.379Z,18.00
2018-05-10T20:20:16.744Z,18.00
2018-05-10T20:25:20.004Z,18.20
2018-05-10T20:30:23.289Z,17.70
2018-05-10T20:35:27.331Z,17.70
2018-05-10T20:40:30.623Z,17.70
2018-05-10T20:45:33.840Z,17.80
2018-05-10T20:50:37.108Z,18.00
2018-05-10T20:55:40.539Z,18.30
2018-05-10T21:05:54.049Z,18.30
2018-05-10T21:10:57.336Z,18.20
2018-05-10T21:16:01.403Z,18.20
2018-05-10T21:21:04.785Z,18.20
2018-05-10T21:26:08.116Z,18.10
2018-05-10T21:31:12.576Z,18.00
2018-05-10T21:36:20.737Z,17.90
2018-05-10T21:41:25.691Z,17.90
2018-05-10T21:46:29.534Z,17.90
2018-05-10T21:51:34.732Z,17.60
2018-05-10T21:56:39.748Z,17.40
2018-05-10T22:01:48.683Z,17.50
2018-05-10T22:06:54.045Z,17.50
2018-05-10T22:11:57.580Z,17.50
2018-05-10T22:17:05.079Z,17.60
2018-05-10T22:22:11.025Z,17.60
2018-05-10T22:32:25.410Z,17.50
2018-05-10T22:37:30.962Z,17.50
2018-05-10T22:42:36.937Z,17.50
2018-05-10T22:47:42.194Z,17.50
2018-05-10T22:52:48.775Z,17.50
2018-05-10T22:57:52.055Z,17.40
2018-05-10T23:02:55.360Z,17.40
2018-05-10T23:07:58.670Z,17.20
2018-05-10T23:13:03.124Z,17.20
2018-05-10T23:18:08.187Z,17.20
2018-05-10T23:23:15.476Z,17.00
2018-05-10T23:28:19.681Z,16.70
2018-05-10T23:33:23.354Z,16.70
2018-05-10T23:38:28.426Z,16.80
2018-05-10T23:43:35.312Z,16.90
2018-05-10T23:48:39.433Z,16.80
2018-05-10T23:53:47.631Z,16.80
2018-05-10T23:58:54.151Z,16.80
